sensor_id;sensor_type;location;lat;lon;timestamp;pressure;altitude;pressure_sealevel;temperature;humidity
40850;BME280;26571;41.610;25.380;2023-04-27T00:00:28;97678.28;;;12.08;77.92
40850;BME280;26571;41.610;25.380;2023-04-27T00:02:54;97684.59;;;12.07;78.45
40850;BME280;26571;41.610;25.380;2023-04-27T00:05:20;97526.94;;;11.05;78.32
40850;BME280;26571;41.610;25.380;2023-04-27T00:07:45;97693.50;;;12.06;78.46
40850;BME280;26571;41.610;25.380;2023-04-27T00:10:10;97695.91;;;12.01;78.20
40850;BME280;26571;41.610;25.380;2023-04-27T00:12:36;97693.28;;;12.01;78.82
40850;BME280;26571;41.610;25.380;2023-04-27T00:15:03;97703.22;;;11.99;79.98
40850;BME280;26571;41.610;25.380;2023-04-27T00:17:28;97705.00;;;11.98;80.00
40850;BME280;26571;41.610;25.380;2023-04-27T00:19:54;97706.59;;;11.93;80.65
40850;BME280;26571;41.610;25.380;2023-04-27T00:22:19;97656.63;;;11.56;80.92
40850;BME280;26571;41.610;25.380;2023-04-27T00:24:45;97704.22;;;11.76;79.79
40850;BME280;26571;41.610;25.380;2023-04-27T00:27:11;97716.41;;;11.77;79.77
40850;BME280;26571;41.610;25.380;2023-04-27T00:29:38;97718.00;;;11.72;80.05
40850;BME280;26571;41.610;25.380;2023-04-27T00:32:10;97719.56;;;11.66;80.37
40850;BME280;26571;41.610;25.380;2023-04-27T00:34:36;97720.38;;;11.67;81.88
40850;BME280;26571;41.610;25.380;2023-04-27T00:37:02;97716.94;;;11.66;79.90
40850;BME280;26571;41.610;25.380;2023-04-27T00:39:28;97720.34;;;11.60;80.83
40850;BME280;26571;41.610;25.380;2023-04-27T00:41:53;97721.34;;;11.59;80.74
40850;BME280;26571;41.610;25.380;2023-04-27T00:44:25;97733.28;;;11.55;81.10
40850;BME280;26571;41.610;25.380;2023-04-27T00:46:52;97711.81;;;11.36;82.02
40850;BME280;26571;41.610;25.380;2023-04-27T00:49:21;97723.09;;;11.52;80.64
40850;BME280;26571;41.610;25.380;2023-04-27T00:51:47;97725.53;;;11.53;80.25
40850;BME280;26571;41.610;25.380;2023-04-27T00:54:19;97732.63;;;11.53;79.07
40850;BME280;26571;41.610;25.380;2023-04-27T00:56:51;97737.03;;;11.46;79.99
40850;BME280;26571;41.610;25.380;2023-04-27T00:59:18;97715.56;;;11.27;79.90
40850;BME280;26571;41.610;25.380;2023-04-27T01:01:44;97745.31;;;11.43;80.70
40850;BME280;26571;41.610;25.380;2023-04-27T01:04:10;97739.31;;;11.49;80.27
40850;BME280;26571;41.610;25.380;2023-04-27T01:06:35;97746.00;;;11.51;80.03
40850;BME280;26571;41.610;25.380;2023-04-27T01:09:00;97748.97;;;11.42;78.77
40850;BME280;26571;41.610;25.380;2023-04-27T01:11:26;97751.22;;;11.45;77.25
40850;BME280;26571;41.610;25.380;2023-04-27T01:13:52;97747.94;;;11.43;76.83
40850;BME280;26571;41.610;25.380;2023-04-27T01:16:18;97754.47;;;11.47;77.44
40850;BME280;26571;41.610;25.380;2023-04-27T01:18:45;97771.25;;;11.39;77.33
40850;BME280;26571;41.610;25.380;2023-04-27T01:21:11;97766.34;;;11.36;76.71
40850;BME280;26571;41.610;25.380;2023-04-27T01:23:37;97742.16;;;11.11;77.41
40850;BME280;26571;41.610;25.380;2023-04-27T01:26:02;97771.63;;;11.36;76.77
40850;BME280;26571;41.610;25.380;2023-04-27T01:28:27;97769.44;;;11.39;76.86
40850;BME280;26571;41.610;25.380;2023-04-27T01:30:53;97775.56;;;11.47;76.95
40850;BME280;26571;41.610;25.380;2023-04-27T01:33:18;97782.59;;;11.39;76.20
40850;BME280;26571;41.610;25.380;2023-04-27T01:35:44;97771.56;;;11.29;77.30
40850;BME280;26571;41.610;25.380;2023-04-27T01:38:09;97785.25;;;11.39;76.63
40850;BME280;26571;41.610;25.380;2023-04-27T01:40:34;97791.13;;;11.42;76.46
40850;BME280;26571;41.610;25.380;2023-04-27T01:43:00;97784.97;;;11.34;76.53
40850;BME280;26571;41.610;25.380;2023-04-27T01:45:25;97756.50;;;11.08;75.49
40850;BME280;26571;41.610;25.380;2023-04-27T01:47:51;97781.84;;;11.24;76.52
40850;BME280;26571;41.610;25.380;2023-04-27T01:50:17;97793.25;;;11.31;76.58
40850;BME280;26571;41.610;25.380;2023-04-27T01:52:43;97790.88;;;11.36;76.46
40850;BME280;26571;41.610;25.380;2023-04-27T01:55:08;97792.88;;;11.34;76.66
40850;BME280;26571;41.610;25.380;2023-04-27T01:57:34;97762.72;;;11.01;76.08
40850;BME280;26571;41.610;25.380;2023-04-27T01:59:59;97802.16;;;11.30;75.91
40850;BME280;26571;41.610;25.380;2023-04-27T02:02:25;97786.50;;;11.07;76.97
40850;BME280;26571;41.610;25.380;2023-04-27T02:04:50;97809.25;;;11.30;76.31
40850;BME280;26571;41.610;25.380;2023-04-27T02:07:16;97809.25;;;11.30;76.22
40850;BME280;26571;41.610;25.380;2023-04-27T02:09:41;97812.91;;;11.29;75.86
40850;BME280;26571;41.610;25.380;2023-04-27T02:12:06;97810.63;;;11.26;75.53
40850;BME280;26571;41.610;25.380;2023-04-27T02:14:32;97813.31;;;11.32;75.45
40850;BME280;26571;41.610;25.380;2023-04-27T02:16:57;97814.94;;;11.33;75.38
40850;BME280;26571;41.610;25.380;2023-04-27T02:19:23;97820.22;;;11.33;73.54
40850;BME280;26571;41.610;25.380;2023-04-27T02:21:48;97821.88;;;11.34;73.03
40850;BME280;26571;41.610;25.380;2023-04-27T02:24:13;97807.19;;;11.25;73.02
40850;BME280;26571;41.610;25.380;2023-04-27T02:26:39;97809.63;;;11.27;74.28
40850;BME280;26571;41.610;25.380;2023-04-27T02:29:04;97810.44;;;11.27;75.24
40850;BME280;26571;41.610;25.380;2023-04-27T02:31:30;97830.75;;;11.33;74.69
40850;BME280;26571;41.610;25.380;2023-04-27T02:33:55;97839.31;;;11.35;75.48
40850;BME280;26571;41.610;25.380;2023-04-27T02:36:21;97831.75;;;11.32;75.08
40850;BME280;26571;41.610;25.380;2023-04-27T02:38:46;97840.41;;;11.26;74.68
40850;BME280;26571;41.610;25.380;2023-04-27T02:41:11;97850.84;;;11.34;75.05
40850;BME280;26571;41.610;25.380;2023-04-27T02:43:37;97852.41;;;11.29;74.43
40850;BME280;26571;41.610;25.380;2023-04-27T02:46:03;97849.03;;;11.35;74.74
40850;BME280;26571;41.610;25.380;2023-04-27T02:48:31;97851.94;;;11.40;74.67
40850;BME280;26571;41.610;25.380;2023-04-27T02:50:57;97857.38;;;11.38;74.88
40850;BME280;26571;41.610;25.380;2023-04-27T02:53:22;97856.75;;;11.36;74.63
40850;BME280;26571;41.610;25.380;2023-04-27T02:55:48;97859.13;;;11.31;73.27
40850;BME280;26571;41.610;25.380;2023-04-27T02:58:14;97861.97;;;11.30;74.89
40850;BME280;26571;41.610;25.380;2023-04-27T03:00:41;97868.50;;;11.34;75.33
40850;BME280;26571;41.610;25.380;2023-04-27T03:03:07;97874.19;;;11.37;73.41
40850;BME280;26571;41.610;25.380;2023-04-27T03:05:34;97872.22;;;11.25;73.83
40850;BME280;26571;41.610;25.380;2023-04-27T03:07:59;97868.78;;;11.24;73.79
40850;BME280;26571;41.610;25.380;2023-04-27T03:10:25;97880.56;;;11.28;73.39
40850;BME280;26571;41.610;25.380;2023-04-27T03:12:50;97880.75;;;11.27;73.02
40850;BME280;26571;41.610;25.380;2023-04-27T03:15:16;97883.94;;;11.22;73.28
40850;BME280;26571;41.610;25.380;2023-04-27T03:17:41;97868.25;;;11.14;73.57
40850;BME280;26571;41.610;25.380;2023-04-27T03:20:07;97887.22;;;11.24;73.64
40850;BME280;26571;41.610;25.380;2023-04-27T03:22:35;97888.84;;;11.25;74.35
40850;BME280;26571;41.610;25.380;2023-04-27T03:25:00;97878.88;;;11.06;72.63
40850;BME280;26571;41.610;25.380;2023-04-27T03:27:26;97892.31;;;11.11;73.84
40850;BME280;26571;41.610;25.380;2023-04-27T03:29:51;97892.59;;;11.16;73.68
40850;BME280;26571;41.610;25.380;2023-04-27T03:32:18;97901.50;;;11.15;73.54
40850;BME280;26571;41.610;25.380;2023-04-27T03:34:43;97863.44;;;10.88;72.99
40850;BME280;26571;41.610;25.380;2023-04-27T03:37:09;97897.66;;;11.03;71.51
40850;BME280;26571;41.610;25.380;2023-04-27T03:39:34;97907.38;;;11.02;73.46
40850;BME280;26571;41.610;25.380;2023-04-27T03:42:00;97913.03;;;10.99;73.14
40850;BME280;26571;41.610;25.380;2023-04-27T03:44:26;97914.81;;;10.99;73.36
40850;BME280;26571;41.610;25.380;2023-04-27T03:46:52;97915.47;;;11.01;74.11
40850;BME280;26571;41.610;25.380;2023-04-27T03:49:17;97926.63;;;11.03;74.07
40850;BME280;26571;41.610;25.380;2023-04-27T03:51:42;97885.16;;;10.75;74.79
40850;BME280;26571;41.610;25.380;2023-04-27T03:54:08;97920.00;;;10.77;74.44
40850;BME280;26571;41.610;25.380;2023-04-27T03:56:34;97928.38;;;10.96;74.61
40850;BME280;26571;41.610;25.380;2023-04-27T03:59:01;97932.28;;;11.00;74.13
40850;BME280;26571;41.610;25.380;2023-04-27T04:01:27;97936.16;;;11.04;73.56
40850;BME280;26571;41.610;25.380;2023-04-27T04:03:52;97942.44;;;11.03;73.64
40850;BME280;26571;41.610;25.380;2023-04-27T04:06:18;97950.72;;;11.00;73.62
40850;BME280;26571;41.610;25.380;2023-04-27T04:08:43;97942.16;;;10.98;73.02
40850;BME280;26571;41.610;25.380;2023-04-27T04:11:09;97961.53;;;11.05;73.85
40850;BME280;26571;41.610;25.380;2023-04-27T04:13:34;97934.72;;;10.86;73.71
40850;BME280;26571;41.610;25.380;2023-04-27T04:16:05;97961.16;;;11.08;73.27
40850;BME280;26571;41.610;25.380;2023-04-27T04:18:31;97962.63;;;11.10;73.14
40850;BME280;26571;41.610;25.380;2023-04-27T04:20:56;97963.78;;;11.08;72.85
40850;BME280;26571;41.610;25.380;2023-04-27T04:23:22;97966.34;;;11.16;72.79
40850;BME280;26571;41.610;25.380;2023-04-27T04:25:48;97965.00;;;11.20;72.84
40850;BME280;26571;41.610;25.380;2023-04-27T04:28:14;97974.16;;;11.24;73.23
40850;BME280;26571;41.610;25.380;2023-04-27T04:30:39;97981.16;;;11.32;72.10
40850;BME280;26571;41.610;25.380;2023-04-27T04:33:05;97979.34;;;11.32;71.47
40850;BME280;26571;41.610;25.380;2023-04-27T04:35:30;97968.53;;;11.27;71.85
40850;BME280;26571;41.610;25.380;2023-04-27T04:37:58;97984.53;;;11.41;72.19
40850;BME280;26571;41.610;25.380;2023-04-27T04:40:24;97984.53;;;11.41;71.71
40850;BME280;26571;41.610;25.380;2023-04-27T04:42:49;97992.63;;;11.39;71.13
40850;BME280;26571;41.610;25.380;2023-04-27T04:45:15;98003.59;;;11.43;71.22
40850;BME280;26571;41.610;25.380;2023-04-27T04:47:40;98004.88;;;11.47;71.67
40850;BME280;26571;41.610;25.380;2023-04-27T04:50:06;98003.16;;;11.54;71.98
40850;BME280;26571;41.610;25.380;2023-04-27T04:52:33;97993.59;;;11.53;71.76
40850;BME280;26571;41.610;25.380;2023-04-27T04:54:58;98002.69;;;11.65;70.79
40850;BME280;26571;41.610;25.380;2023-04-27T04:57:24;98009.06;;;11.56;71.60
40850;BME280;26571;41.610;25.380;2023-04-27T04:59:49;98006.78;;;11.53;72.66
40850;BME280;26571;41.610;25.380;2023-04-27T05:02:15;98010.13;;;11.47;72.78
40850;BME280;26571;41.610;25.380;2023-04-27T05:04:40;98004.59;;;11.56;73.09
40850;BME280;26571;41.610;25.380;2023-04-27T05:07:06;98019.22;;;11.74;73.15
40850;BME280;26571;41.610;25.380;2023-04-27T05:09:31;98017.59;;;11.87;73.68
40850;BME280;26571;41.610;25.380;2023-04-27T05:11:57;98016.13;;;12.00;72.37
40850;BME280;26571;41.610;25.380;2023-04-27T05:14:22;98018.63;;;12.08;72.60
40850;BME280;26571;41.610;25.380;2023-04-27T05:16:48;98018.06;;;12.12;70.22
40850;BME280;26571;41.610;25.380;2023-04-27T05:19:15;98025.06;;;12.20;69.58
40850;BME280;26571;41.610;25.380;2023-04-27T05:21:43;98020.63;;;12.21;69.48
40850;BME280;26571;41.610;25.380;2023-04-27T05:24:10;98025.59;;;12.30;69.95
40850;BME280;26571;41.610;25.380;2023-04-27T05:26:35;98023.50;;;12.47;70.86
40850;BME280;26571;41.610;25.380;2023-04-27T05:29:01;98023.19;;;12.57;68.59
40850;BME280;26571;41.610;25.380;2023-04-27T05:31:26;98029.13;;;12.59;68.36
40850;BME280;26571;41.610;25.380;2023-04-27T05:33:52;97996.56;;;12.30;68.67
40850;BME280;26571;41.610;25.380;2023-04-27T05:36:17;98027.47;;;12.58;67.67
40850;BME280;26571;41.610;25.380;2023-04-27T05:38:42;98034.22;;;12.60;67.39
40850;BME280;26571;41.610;25.380;2023-04-27T05:41:08;98023.16;;;12.50;65.75
40850;BME280;26571;41.610;25.380;2023-04-27T05:43:33;98039.66;;;12.37;66.47
40850;BME280;26571;41.610;25.380;2023-04-27T05:45:59;97996.41;;;12.17;66.83
40850;BME280;26571;41.610;25.380;2023-04-27T05:48:25;98035.28;;;12.45;66.67
40850;BME280;26571;41.610;25.380;2023-04-27T05:51:01;98036.09;;;12.45;67.31
40850;BME280;26571;41.610;25.380;2023-04-27T05:53:27;98042.38;;;12.44;66.64
40850;BME280;26571;41.610;25.380;2023-04-27T05:55:53;98044.22;;;12.44;67.05
40850;BME280;26571;41.610;25.380;2023-04-27T05:58:18;98052.28;;;12.42;65.58
40850;BME280;26571;41.610;25.380;2023-04-27T06:00:44;98049.78;;;12.34;66.76
40850;BME280;26571;41.610;25.380;2023-04-27T06:03:10;98059.63;;;12.25;66.29
40850;BME280;26571;41.610;25.380;2023-04-27T06:05:35;98053.28;;;12.20;66.43
40850;BME280;26571;41.610;25.380;2023-04-27T06:08:00;98052.72;;;12.24;65.67
40850;BME280;26571;41.610;25.380;2023-04-27T06:10:26;98053.28;;;12.20;65.94
40850;BME280;26571;41.610;25.380;2023-04-27T06:12:51;98044.38;;;12.21;65.93
40850;BME280;26571;41.610;25.380;2023-04-27T06:15:17;98048.53;;;12.30;65.34
40850;BME280;26571;41.610;25.380;2023-04-27T06:17:42;98057.31;;;12.37;66.07
40850;BME280;26571;41.610;25.380;2023-04-27T06:20:08;98034.38;;;12.37;65.34
40850;BME280;26571;41.610;25.380;2023-04-27T06:22:37;98039.25;;;12.34;64.83
40850;BME280;26571;41.610;25.380;2023-04-27T06:25:04;98060.06;;;12.44;65.12
40850;BME280;26571;41.610;25.380;2023-04-27T06:27:30;98056.00;;;12.48;66.04
40850;BME280;26571;41.610;25.380;2023-04-27T06:29:56;98061.53;;;12.53;65.18
40850;BME280;26571;41.610;25.380;2023-04-27T06:32:21;98059.94;;;12.73;66.32
40850;BME280;26571;41.610;25.380;2023-04-27T06:34:47;98057.97;;;12.82;63.41
40850;BME280;26571;41.610;25.380;2023-04-27T06:37:13;98057.13;;;13.03;65.56
40850;BME280;26571;41.610;25.380;2023-04-27T06:39:42;98060.78;;;13.23;64.89
40850;BME280;26571;41.610;25.380;2023-04-27T06:42:07;98065.88;;;13.53;62.72
40850;BME280;26571;41.610;25.380;2023-04-27T06:44:32;98060.28;;;13.76;61.99
40850;BME280;26571;41.610;25.380;2023-04-27T06:46:58;98062.97;;;14.30;62.44
40850;BME280;26571;41.610;25.380;2023-04-27T06:49:23;98066.06;;;14.40;60.43
40850;BME280;26571;41.610;25.380;2023-04-27T06:51:49;98043.84;;;14.41;59.72
40850;BME280;26571;41.610;25.380;2023-04-27T06:54:15;98065.50;;;14.52;57.33
40850;BME280;26571;41.610;25.380;2023-04-27T06:56:41;98058.91;;;14.34;57.90
40850;BME280;26571;41.610;25.380;2023-04-27T06:59:07;98073.91;;;14.75;58.70
40850;BME280;26571;41.610;25.380;2023-04-27T07:01:32;98079.44;;;14.87;56.22
40850;BME280;26571;41.610;25.380;2023-04-27T07:03:58;98047.63;;;14.80;54.91
40850;BME280;26571;41.610;25.380;2023-04-27T07:06:23;98092.91;;;14.98;56.74
40850;BME280;26571;41.610;25.380;2023-04-27T07:08:50;98087.97;;;14.69;55.68
40850;BME280;26571;41.610;25.380;2023-04-27T07:11:15;98073.44;;;14.52;54.67
40850;BME280;26571;41.610;25.380;2023-04-27T07:13:41;98080.59;;;14.58;57.08
40850;BME280;26571;41.610;25.380;2023-04-27T07:16:06;98085.50;;;14.61;54.56
40850;BME280;26571;41.610;25.380;2023-04-27T07:18:32;98091.41;;;14.69;56.99
40850;BME280;26571;41.610;25.380;2023-04-27T07:20:58;98088.81;;;15.16;53.06
40850;BME280;26571;41.610;25.380;2023-04-27T07:23:23;98087.59;;;15.51;55.47
40850;BME280;26571;41.610;25.380;2023-04-27T07:25:49;98085.56;;;15.67;53.73
40850;BME280;26571;41.610;25.380;2023-04-27T07:28:14;98081.81;;;15.81;50.99
40850;BME280;26571;41.610;25.380;2023-04-27T07:30:40;98090.03;;;15.73;49.73
40850;BME280;26571;41.610;25.380;2023-04-27T07:33:07;98060.25;;;15.11;51.73
40850;BME280;26571;41.610;25.380;2023-04-27T07:35:33;98097.56;;;15.36;53.65
40850;BME280;26571;41.610;25.380;2023-04-27T07:37:59;98066.38;;;14.98;52.87
40850;BME280;26571;41.610;25.380;2023-04-27T07:40:26;98105.53;;;15.16;54.00
40850;BME280;26571;41.610;25.380;2023-04-27T07:42:52;98100.19;;;14.63;53.94
40850;BME280;26571;41.610;25.380;2023-04-27T07:45:18;98105.03;;;14.53;54.48
40850;BME280;26571;41.610;25.380;2023-04-27T07:47:43;98102.69;;;14.37;56.17
40850;BME280;26571;41.610;25.380;2023-04-27T07:50:09;98113.59;;;14.48;57.68
40850;BME280;26571;41.610;25.380;2023-04-27T07:52:35;98115.56;;;14.40;56.40
40850;BME280;26571;41.610;25.380;2023-04-27T07:55:02;98108.63;;;14.32;55.92
40850;BME280;26571;41.610;25.380;2023-04-27T07:57:28;98062.56;;;13.79;57.16
40850;BME280;26571;41.610;25.380;2023-04-27T07:59:53;98113.84;;;14.19;57.88
40850;BME280;26571;41.610;25.380;2023-04-27T08:02:18;98106.13;;;14.24;57.53
40850;BME280;26571;41.610;25.380;2023-04-27T08:04:44;98094.19;;;13.93;57.46
40850;BME280;26571;41.610;25.380;2023-04-27T08:07:09;98112.63;;;14.21;58.75
40850;BME280;26571;41.610;25.380;2023-04-27T08:09:35;98110.34;;;14.60;57.71
40850;BME280;26571;41.610;25.380;2023-04-27T08:12:00;98119.78;;;14.82;55.16
40850;BME280;26571;41.610;25.380;2023-04-27T08:14:27;98084.09;;;14.17;55.27
40850;BME280;26571;41.610;25.380;2023-04-27T08:16:52;98114.56;;;14.00;57.00
40850;BME280;26571;41.610;25.380;2023-04-27T08:19:18;98118.28;;;13.77;57.89
40850;BME280;26571;41.610;25.380;2023-04-27T08:21:43;98110.28;;;13.99;60.56
40850;BME280;26571;41.610;25.380;2023-04-27T08:24:09;98109.50;;;14.05;58.59
40850;BME280;26571;41.610;25.380;2023-04-27T08:26:34;98103.00;;;14.07;58.12
40850;BME280;26571;41.610;25.380;2023-04-27T08:29:01;98108.25;;;14.01;60.13
40850;BME280;26571;41.610;25.380;2023-04-27T08:31:26;98108.09;;;14.57;58.32
40850;BME280;26571;41.610;25.380;2023-04-27T08:33:52;98101.44;;;15.00;58.02
40850;BME280;26571;41.610;25.380;2023-04-27T08:36:20;98071.50;;;14.93;52.59
40850;BME280;26571;41.610;25.380;2023-04-27T08:38:49;98094.13;;;15.42;56.21
40850;BME280;26571;41.610;25.380;2023-04-27T08:41:21;98101.47;;;15.40;54.51
40850;BME280;26571;41.610;25.380;2023-04-27T08:43:47;98104.72;;;14.96;53.80
40850;BME280;26571;41.610;25.380;2023-04-27T08:46:20;98097.16;;;14.86;55.10
40850;BME280;26571;41.610;25.380;2023-04-27T08:48:48;98100.66;;;15.07;57.14
40850;BME280;26571;41.610;25.380;2023-04-27T08:51:14;98072.72;;;15.24;54.74
40850;BME280;26571;41.610;25.380;2023-04-27T08:53:49;98101.44;;;15.54;54.02
40850;BME280;26571;41.610;25.380;2023-04-27T08:56:16;98100.22;;;15.63;53.01
40850;BME280;26571;41.610;25.380;2023-04-27T08:58:42;98072.50;;;15.06;55.86
40850;BME280;26571;41.610;25.380;2023-04-27T09:01:07;98098.19;;;15.65;55.58
40850;BME280;26571;41.610;25.380;2023-04-27T09:03:33;98093.28;;;15.75;55.13
40850;BME280;26571;41.610;25.380;2023-04-27T09:06:01;98100.22;;;15.49;53.43
40850;BME280;26571;41.610;25.380;2023-04-27T09:08:26;98104.31;;;15.19;53.26
40850;BME280;26571;41.610;25.380;2023-04-27T09:10:52;98108.38;;;15.21;55.71
40850;BME280;26571;41.610;25.380;2023-04-27T09:13:19;98085.16;;;15.04;55.13
40850;BME280;26571;41.610;25.380;2023-04-27T09:15:49;98095.75;;;15.57;56.35
40850;BME280;26571;41.610;25.380;2023-04-27T09:18:17;98098.97;;;15.85;56.26
40850;BME280;26571;41.610;25.380;2023-04-27T09:23:33;98092.91;;;15.71;54.83
40850;BME280;26571;41.610;25.380;2023-04-27T09:26:06;98083.03;;;15.85;54.47
40850;BME280;26571;41.610;25.380;2023-04-27T09:28:38;98079.75;;;15.96;54.01
40850;BME280;26571;41.610;25.380;2023-04-27T09:31:05;98088.63;;;16.28;53.02
40850;BME280;26571;41.610;25.380;2023-04-27T09:33:34;98080.66;;;16.67;52.03
40850;BME280;26571;41.610;25.380;2023-04-27T09:36:00;98081.78;;;16.84;54.67
40850;BME280;26571;41.610;25.380;2023-04-27T09:38:26;98066.00;;;16.58;52.90
40850;BME280;26571;41.610;25.380;2023-04-27T09:40:53;98086.38;;;16.64;52.04
40850;BME280;26571;41.610;25.380;2023-04-27T09:43:19;98074.25;;;16.43;53.55
40850;BME280;26571;41.610;25.380;2023-04-27T09:45:44;98078.56;;;16.37;51.84
40850;BME280;26571;41.610;25.380;2023-04-27T09:48:11;98076.09;;;16.42;51.11
40850;BME280;26571;41.610;25.380;2023-04-27T09:50:38;98063.56;;;16.49;51.53
40850;BME280;26571;41.610;25.380;2023-04-27T09:53:06;98085.75;;;17.07;48.69
40850;BME280;26571;41.610;25.380;2023-04-27T09:55:39;98080.59;;;17.55;51.60
40850;BME280;26571;41.610;25.380;2023-04-27T10:01:02;98071.72;;;17.86;47.28
40850;BME280;26571;41.610;25.380;2023-04-27T10:08:28;98065.41;;;18.17;44.54
40850;BME280;26571;41.610;25.380;2023-04-27T10:10:53;98064.34;;;17.63;44.03
40850;BME280;26571;41.610;25.380;2023-04-27T10:13:23;98051.44;;;17.85;47.44
40850;BME280;26571;41.610;25.380;2023-04-27T10:15:50;98048.34;;;18.06;45.77
40850;BME280;26571;41.610;25.380;2023-04-27T10:18:29;98065.34;;;17.87;46.52
40850;BME280;26571;41.610;25.380;2023-04-27T10:20:56;98060.41;;;17.91;46.21
40850;BME280;26571;41.610;25.380;2023-04-27T10:23:23;98063.56;;;17.99;47.64
40850;BME280;26571;41.610;25.380;2023-04-27T10:25:48;98055.09;;;17.91;44.44
40850;BME280;26571;41.610;25.380;2023-04-27T10:28:15;98054.09;;;17.67;45.89
40850;BME280;26571;41.610;25.380;2023-04-27T10:30:45;98066.44;;;17.61;45.86
40850;BME280;26571;41.610;25.380;2023-04-27T10:33:16;98046.25;;;18.08;49.69
40850;BME280;26571;41.610;25.380;2023-04-27T10:35:44;98049.28;;;18.30;44.76
40850;BME280;26571;41.610;25.380;2023-04-27T10:40:40;98058.28;;;17.13;49.94
40850;BME280;26571;41.610;25.380;2023-04-27T10:43:14;98050.22;;;16.63;52.15
40850;BME280;26571;41.610;25.380;2023-04-27T10:45:41;98049.38;;;16.31;51.09
40850;BME280;26571;41.610;25.380;2023-04-27T10:48:07;98047.66;;;16.11;50.51
40850;BME280;26571;41.610;25.380;2023-04-27T10:50:34;98054.72;;;16.24;53.91
40850;BME280;26571;41.610;25.380;2023-04-27T10:53:02;98068.16;;;15.71;52.47
40850;BME280;26571;41.610;25.380;2023-04-27T10:55:28;98059.41;;;15.50;55.19
40850;BME280;26571;41.610;25.380;2023-04-27T10:57:56;98047.38;;;15.68;55.27
40850;BME280;26571;41.610;25.380;2023-04-27T11:00:29;98012.50;;;15.38;55.29
40850;BME280;26571;41.610;25.380;2023-04-27T11:03:07;98041.25;;;15.67;56.15
40850;BME280;26571;41.610;25.380;2023-04-27T11:05:33;98040.47;;;15.47;57.67
40850;BME280;26571;41.610;25.380;2023-04-27T11:08:08;98063.13;;;15.10;58.59
40850;BME280;26571;41.610;25.380;2023-04-27T11:10:34;98043.34;;;14.92;58.23
40850;BME280;26571;41.610;25.380;2023-04-27T11:13:10;98037.84;;;15.07;57.95
40850;BME280;26571;41.610;25.380;2023-04-27T11:15:43;98041.91;;;14.96;56.09
40850;BME280;26571;41.610;25.380;2023-04-27T11:18:09;98045.59;;;15.22;57.26
40850;BME280;26571;41.610;25.380;2023-04-27T11:20:35;98032.50;;;15.47;53.73
40850;BME280;26571;41.610;25.380;2023-04-27T11:23:00;98029.81;;;15.54;54.26
40850;BME280;26571;41.610;25.380;2023-04-27T11:25:27;98049.00;;;15.69;54.11
40850;BME280;26571;41.610;25.380;2023-04-27T11:27:53;98032.69;;;15.52;56.38
40850;BME280;26571;41.610;25.380;2023-04-27T11:30:20;98035.59;;;15.11;57.91
40850;BME280;26571;41.610;25.380;2023-04-27T11:32:46;98045.59;;;14.89;59.98
40850;BME280;26571;41.610;25.380;2023-04-27T11:35:12;98046.19;;;15.04;59.47
40850;BME280;26571;41.610;25.380;2023-04-27T11:37:37;98026.19;;;15.15;59.82
40850;BME280;26571;41.610;25.380;2023-04-27T11:40:03;98048.81;;;15.31;57.19
40850;BME280;26571;41.610;25.380;2023-04-27T11:42:29;98048.03;;;15.17;57.69
40850;BME280;26571;41.610;25.380;2023-04-27T11:45:03;98052.53;;;15.10;59.84
40850;BME280;26571;41.610;25.380;2023-04-27T11:47:33;98021.94;;;15.07;59.51
40850;BME280;26571;41.610;25.380;2023-04-27T11:50:01;98055.59;;;15.27;59.83
40850;BME280;26571;41.610;25.380;2023-04-27T11:52:29;98056.16;;;15.35;59.21
40850;BME280;26571;41.610;25.380;2023-04-27T11:54:56;98056.59;;;15.32;59.03
40850;BME280;26571;41.610;25.380;2023-04-27T11:57:25;98037.00;;;15.20;56.10
40850;BME280;26571;41.610;25.380;2023-04-27T11:59:52;98052.69;;;15.41;58.66
40850;BME280;26571;41.610;25.380;2023-04-27T12:02:19;98061.28;;;15.43;55.09
40850;BME280;26571;41.610;25.380;2023-04-27T12:04:47;98018.25;;;14.95;56.51
40850;BME280;26571;41.610;25.380;2023-04-27T12:07:13;98065.56;;;15.05;59.00
40850;BME280;26571;41.610;25.380;2023-04-27T12:09:38;98058.63;;;14.84;60.31
40850;BME280;26571;41.610;25.380;2023-04-27T12:12:04;98063.09;;;14.70;60.08
40850;BME280;26571;41.610;25.380;2023-04-27T12:14:30;98064.91;;;14.56;60.56
40850;BME280;26571;41.610;25.380;2023-04-27T12:16:56;98068.69;;;14.40;60.51
40850;BME280;26571;41.610;25.380;2023-04-27T12:19:21;98072.53;;;14.25;61.47
40850;BME280;26571;41.610;25.380;2023-04-27T12:21:49;98071.28;;;14.20;62.41
40850;BME280;26571;41.610;25.380;2023-04-27T12:24:15;98056.34;;;14.06;62.06
40850;BME280;26571;41.610;25.380;2023-04-27T12:26:40;98064.59;;;14.31;63.25
40850;BME280;26571;41.610;25.380;2023-04-27T12:29:06;98061.13;;;14.31;63.21
40850;BME280;26571;41.610;25.380;2023-04-27T12:31:31;98055.81;;;14.24;60.93
40850;BME280;26571;41.610;25.380;2023-04-27T12:33:57;98059.56;;;14.43;61.61
40850;BME280;26571;41.610;25.380;2023-04-27T12:36:23;98063.88;;;14.51;61.08
40850;BME280;26571;41.610;25.380;2023-04-27T12:38:48;98061.03;;;14.52;61.01
40850;BME280;26571;41.610;25.380;2023-04-27T12:41:14;98069.59;;;14.47;60.31
40850;BME280;26571;41.610;25.380;2023-04-27T12:43:39;98071.97;;;14.42;61.02
40850;BME280;26571;41.610;25.380;2023-04-27T12:46:05;98070.78;;;14.52;60.26
40850;BME280;26571;41.610;25.380;2023-04-27T12:48:31;98070.19;;;14.50;60.20
40850;BME280;26571;41.610;25.380;2023-04-27T12:50:57;98068.34;;;14.50;61.12
40850;BME280;26571;41.610;25.380;2023-04-27T12:53:22;98043.91;;;14.61;61.71
40850;BME280;26571;41.610;25.380;2023-04-27T12:55:48;98069.84;;;14.79;60.08
40850;BME280;26571;41.610;25.380;2023-04-27T12:58:13;98068.81;;;14.80;60.10